createdAt,value
2022-12-18T00:00:20.551Z,61.90
2022-12-18T00:01:20.657Z,60.50
2022-12-18T00:02:20.530Z,60.70
2022-12-18T00:03:20.634Z,60.70
2022-12-18T00:04:20.615Z,60.50
2022-12-18T00:05:20.491Z,59.80
2022-12-18T00:06:20.493Z,59.60
2022-12-18T00:07:20.475Z,61.60
2022-12-18T00:08:20.458Z,62.30
2022-12-18T00:09:20.441Z,58.60
2022-12-18T00:10:20.436Z,62.00
2022-12-18T00:11:20.447Z,60.30
2022-12-18T00:12:20.442Z,63.30
2022-12-18T00:13:20.408Z,63.60
2022-12-18T00:14:20.395Z,62.00
2022-12-18T00:15:20.393Z,64.30
2022-12-18T00:16:20.444Z,64.30
2022-12-18T00:17:20.349Z,65.70
2022-12-18T00:18:20.746Z,63.30
2022-12-18T00:19:20.330Z,65.60
2022-12-18T00:20:20.320Z,61.90
2022-12-18T00:21:20.337Z,61.50
2022-12-18T00:22:20.302Z,59.20
2022-12-18T00:23:20.290Z,60.60
2022-12-18T00:24:20.272Z,58.60
2022-12-18T00:25:20.261Z,60.00
2022-12-18T00:26:20.277Z,62.30
2022-12-18T00:27:20.232Z,62.60
2022-12-18T00:28:20.221Z,62.70
2022-12-18T00:29:20.222Z,60.00
2022-12-18T00:30:20.208Z,60.50
2022-12-18T00:31:20.293Z,57.90
2022-12-18T00:32:20.179Z,62.30
2022-12-18T00:33:20.166Z,58.50
2022-12-18T00:34:20.168Z,55.20
2022-12-18T00:35:20.180Z,63.00
2022-12-18T00:36:20.154Z,58.00
2022-12-18T00:37:20.564Z,54.30
2022-12-18T00:38:20.105Z,57.70
2022-12-18T00:39:20.099Z,56.90
2022-12-18T00:40:20.096Z,55.30
2022-12-18T00:41:20.085Z,52.50
2022-12-18T00:42:20.064Z,57.90
2022-12-18T00:43:20.049Z,57.30
2022-12-18T00:44:20.038Z,56.80
2022-12-18T00:45:20.031Z,53.30
2022-12-18T00:46:20.065Z,56.00
2022-12-18T00:47:20.020Z,56.60
2022-12-18T00:48:20.001Z,59.40
2022-12-18T00:49:19.978Z,56.60
2022-12-18T00:50:19.969Z,55.00
2022-12-18T00:51:19.972Z,53.40
2022-12-18T00:52:19.946Z,56.10
2022-12-18T00:53:19.933Z,56.20
2022-12-18T00:54:19.923Z,54.80
2022-12-18T00:55:19.909Z,54.30
2022-12-18T00:56:19.914Z,54.10
2022-12-18T00:57:19.891Z,55.00
2022-12-18T00:58:19.880Z,54.80
2022-12-18T00:59:19.916Z,54.70
2022-12-18T01:00:19.852Z,54.30
2022-12-18T01:01:20.085Z,55.70
2022-12-18T01:02:19.987Z,53.80
2022-12-18T01:03:19.892Z,55.10
2022-12-18T01:04:19.805Z,54.90
2022-12-18T01:05:19.797Z,54.90
2022-12-18T01:06:19.787Z,52.10
2022-12-18T01:07:19.791Z,55.40
2022-12-18T01:08:19.766Z,53.40
2022-12-18T01:09:19.751Z,53.50
2022-12-18T01:10:19.737Z,57.40
2022-12-18T01:11:19.730Z,55.70
2022-12-18T01:12:19.730Z,54.50
2022-12-18T01:13:19.709Z,53.60
2022-12-18T01:14:19.782Z,56.30
2022-12-18T01:15:19.690Z,52.90
2022-12-18T01:16:19.738Z,55.50
2022-12-18T01:17:19.673Z,55.00
2022-12-18T01:18:19.642Z,53.40
2022-12-18T01:19:19.717Z,54.50
2022-12-18T01:20:19.629Z,53.30
2022-12-18T01:21:19.611Z,60.00
2022-12-18T01:22:19.614Z,53.60
2022-12-18T01:23:19.590Z,56.00
2022-12-18T01:24:19.581Z,61.00
2022-12-18T01:25:19.570Z,57.70
2022-12-18T01:26:19.557Z,56.80
2022-12-18T01:27:19.566Z,55.40
2022-12-18T01:28:19.534Z,56.10
2022-12-18T01:29:19.524Z,57.20
2022-12-18T01:30:19.510Z,53.50
2022-12-18T01:31:19.543Z,58.40
2022-12-18T01:32:19.510Z,56.70
2022-12-18T01:33:19.480Z,55.30
2022-12-18T01:34:19.462Z,57.80
2022-12-18T01:35:19.451Z,56.50
2022-12-18T01:36:19.438Z,59.00
2022-12-18T01:37:19.446Z,58.60
2022-12-18T01:38:19.421Z,59.40
2022-12-18T01:39:19.406Z,55.40
2022-12-18T01:40:19.395Z,55.20
2022-12-18T01:41:19.386Z,53.40
2022-12-18T01:42:19.384Z,54.10
2022-12-18T01:43:19.361Z,54.30
2022-12-18T01:44:19.355Z,52.70
2022-12-18T01:45:19.338Z,61.70
2022-12-18T01:46:19.395Z,65.00
2022-12-18T01:47:19.341Z,61.40
2022-12-18T01:48:19.302Z,66.80
2022-12-18T01:49:19.291Z,56.10
2022-12-18T01:50:19.280Z,58.50
2022-12-18T01:51:19.270Z,54.80
2022-12-18T01:52:19.274Z,58.50
2022-12-18T01:53:19.246Z,56.00
2022-12-18T01:54:19.234Z,55.00
2022-12-18T01:55:19.228Z,49.60
2022-12-18T01:56:19.208Z,49.00
2022-12-18T01:57:19.211Z,53.70
2022-12-18T01:58:19.197Z,52.00
2022-12-18T01:59:19.176Z,55.70
2022-12-18T02:00:19.165Z,53.90
2022-12-18T02:01:19.279Z,57.00
2022-12-18T02:02:19.288Z,56.80
2022-12-18T02:03:19.220Z,52.90
2022-12-18T02:04:19.116Z,57.20
2022-12-18T02:05:19.106Z,54.20
2022-12-18T02:06:19.099Z,54.70
2022-12-18T02:07:19.116Z,58.70
2022-12-18T02:08:19.072Z,58.00
2022-12-18T02:09:19.110Z,55.90
2022-12-18T02:10:19.050Z,57.30
2022-12-18T02:11:19.037Z,54.40
2022-12-18T02:12:19.044Z,56.20
2022-12-18T02:13:19.148Z,56.90
2022-12-18T02:14:19.003Z,58.70
2022-12-18T02:15:18.992Z,55.60
2022-12-18T02:16:19.048Z,55.70
2022-12-18T02:17:18.978Z,55.50
2022-12-18T02:18:18.978Z,52.60
2022-12-18T02:19:18.946Z,53.80
2022-12-18T02:20:18.934Z,52.50
2022-12-18T02:21:18.922Z,55.30
2022-12-18T02:22:18.911Z,54.90
2022-12-18T02:23:18.920Z,53.90
2022-12-18T02:24:18.888Z,51.20
2022-12-18T02:25:18.885Z,55.20
2022-12-18T02:26:18.872Z,54.20
2022-12-18T02:27:18.862Z,56.50
2022-12-18T02:28:18.856Z,55.70
2022-12-18T02:29:18.941Z,57.00
2022-12-18T02:30:18.822Z,56.10
2022-12-18T02:31:18.900Z,56.10
2022-12-18T02:32:18.799Z,53.60
2022-12-18T02:33:18.806Z,57.00
2022-12-18T02:34:18.774Z,58.20
2022-12-18T02:35:18.765Z,57.00
2022-12-18T02:36:18.756Z,57.80
2022-12-18T02:37:18.745Z,55.80
2022-12-18T02:38:18.741Z,54.20
2022-12-18T02:39:18.716Z,57.60
2022-12-18T02:40:18.709Z,53.80
2022-12-18T02:41:18.703Z,54.10
2022-12-18T02:42:18.684Z,57.50
2022-12-18T02:43:18.689Z,55.90
2022-12-18T02:44:18.676Z,55.00
2022-12-18T02:45:18.775Z,58.10
2022-12-18T02:46:18.772Z,53.20
2022-12-18T02:47:18.638Z,56.00
2022-12-18T02:48:18.628Z,58.00
2022-12-18T02:49:18.622Z,55.60
2022-12-18T02:50:18.589Z,54.90
2022-12-18T02:51:18.581Z,59.10
2022-12-18T02:52:18.567Z,52.50
2022-12-18T02:53:18.574Z,56.40
2022-12-18T02:54:18.552Z,55.60
2022-12-18T02:55:18.535Z,56.60
2022-12-18T02:56:18.532Z,58.60
2022-12-18T02:57:18.513Z,57.10
2022-12-18T02:58:18.525Z,56.50
2022-12-18T02:59:18.507Z,59.90
2022-12-18T03:00:18.502Z,55.50
2022-12-18T03:01:18.810Z,57.40
2022-12-18T03:02:18.617Z,58.00
2022-12-18T03:03:18.533Z,56.00
2022-12-18T03:04:18.493Z,53.50
2022-12-18T03:05:18.520Z,55.20
2022-12-18T03:06:18.436Z,53.60
2022-12-18T03:07:18.404Z,55.80
2022-12-18T03:08:18.441Z,57.80
2022-12-18T03:09:18.395Z,56.50
2022-12-18T03:10:18.365Z,55.40
2022-12-18T03:11:18.368Z,56.10
2022-12-18T03:12:18.425Z,56.00
2022-12-18T03:13:18.421Z,54.70
2022-12-18T03:14:18.404Z,57.10
2022-12-18T03:15:18.341Z,54.40
2022-12-18T03:16:18.314Z,56.30
2022-12-18T03:17:18.436Z,52.90
2022-12-18T03:18:18.301Z,57.50
2022-12-18T03:19:18.287Z,54.10
2022-12-18T03:20:18.259Z,56.70
2022-12-18T03:21:18.238Z,56.80
2022-12-18T03:22:18.224Z,57.00
2022-12-18T03:23:18.215Z,52.60
2022-12-18T03:24:18.286Z,54.50
2022-12-18T03:25:18.192Z,57.70
2022-12-18T03:26:18.176Z,54.20
2022-12-18T03:27:18.174Z,52.70
2022-12-18T03:28:18.157Z,50.50
2022-12-18T03:29:18.284Z,50.10
2022-12-18T03:30:18.139Z,54.70
2022-12-18T03:31:18.209Z,56.00
2022-12-18T03:32:18.109Z,54.40
2022-12-18T03:33:18.210Z,60.00
2022-12-18T03:34:18.104Z,65.00
2022-12-18T03:35:18.078Z,55.30
2022-12-18T03:36:18.061Z,58.30
2022-12-18T03:37:18.075Z,58.10
2022-12-18T03:38:18.036Z,61.50
2022-12-18T03:39:18.039Z,62.70
2022-12-18T03:40:18.027Z,65.30
2022-12-18T03:41:18.005Z,68.20
2022-12-18T03:42:18.002Z,66.80
2022-12-18T03:43:17.984Z,62.90
2022-12-18T03:44:17.984Z,63.40
2022-12-18T03:45:17.965Z,63.20
2022-12-18T03:46:18.043Z,58.90
2022-12-18T03:47:17.943Z,54.90
2022-12-18T03:48:17.925Z,58.00
2022-12-18T03:49:18.069Z,54.40
2022-12-18T03:50:17.904Z,56.10
2022-12-18T03:51:17.895Z,59.20
2022-12-18T03:52:17.877Z,56.70
2022-12-18T03:53:17.872Z,54.10
2022-12-18T03:54:17.879Z,56.10
2022-12-18T03:55:17.844Z,54.10
2022-12-18T03:56:17.836Z,57.40
2022-12-18T03:57:17.822Z,69.20
2022-12-18T03:58:17.816Z,58.30
2022-12-18T03:59:17.815Z,62.40
2022-12-18T04:00:17.793Z,65.70
2022-12-18T04:01:17.952Z,61.40
2022-12-18T04:02:17.973Z,67.30
2022-12-18T04:03:17.803Z,67.80
2022-12-18T04:04:17.911Z,70.60
2022-12-18T04:05:17.845Z,61.90
2022-12-18T04:06:17.723Z,59.40
2022-12-18T04:07:17.710Z,58.50
2022-12-18T04:08:17.700Z,55.70
2022-12-18T04:09:17.705Z,55.10
2022-12-18T04:10:17.681Z,50.00
2022-12-18T04:11:17.696Z,54.20
2022-12-18T04:12:17.652Z,55.40
2022-12-18T04:13:17.644Z,59.30
2022-12-18T04:14:18.543Z,54.20
2022-12-18T04:15:17.638Z,57.90
2022-12-18T04:16:17.654Z,54.40
2022-12-18T04:17:17.599Z,54.60
2022-12-18T04:18:17.581Z,56.90
2022-12-18T04:19:17.593Z,55.90
2022-12-18T04:20:17.565Z,58.80
2022-12-18T04:21:17.663Z,54.70
2022-12-18T04:22:17.541Z,57.50
2022-12-18T04:23:17.522Z,55.70
2022-12-18T04:24:17.547Z,51.80
2022-12-18T04:25:17.501Z,55.20
2022-12-18T04:26:17.505Z,53.40
2022-12-18T04:27:17.494Z,54.80
2022-12-18T04:28:17.476Z,54.50
2022-12-18T04:29:17.468Z,53.30
2022-12-18T04:30:17.473Z,54.30
2022-12-18T04:31:17.497Z,52.60
2022-12-18T04:32:17.427Z,54.40
2022-12-18T04:33:17.415Z,56.70
2022-12-18T04:34:17.402Z,52.00
2022-12-18T04:35:17.406Z,52.50
2022-12-18T04:36:17.376Z,54.10
2022-12-18T04:37:17.487Z,56.60
2022-12-18T04:38:17.358Z,54.60
2022-12-18T04:39:17.344Z,59.50
2022-12-18T04:40:17.351Z,59.90
2022-12-18T04:41:17.341Z,60.70
2022-12-18T04:42:17.312Z,54.80
2022-12-18T04:43:17.414Z,56.90
2022-12-18T04:44:17.285Z,58.10
2022-12-18T04:45:17.289Z,60.00
2022-12-18T04:46:17.336Z,52.80
2022-12-18T04:47:17.253Z,50.00
2022-12-18T04:48:17.241Z,52.40
2022-12-18T04:49:17.230Z,52.00
2022-12-18T04:50:17.238Z,50.00
2022-12-18T04:51:19.834Z,54.00
2022-12-18T04:52:17.213Z,51.90
2022-12-18T04:53:17.300Z,54.70
2022-12-18T04:54:17.181Z,48.60
2022-12-18T04:55:17.172Z,50.80
2022-12-18T04:56:17.151Z,52.60
2022-12-18T04:57:17.141Z,52.60
2022-12-18T04:58:17.125Z,51.50
2022-12-18T04:59:17.114Z,52.00
2022-12-18T05:00:17.120Z,52.30
2022-12-18T05:01:17.366Z,52.30
2022-12-18T05:02:17.186Z,54.20
2022-12-18T05:03:17.115Z,56.80
2022-12-18T05:04:17.137Z,58.40
2022-12-18T05:05:17.059Z,55.30
2022-12-18T05:06:17.039Z,48.80
2022-12-18T05:07:17.019Z,54.90
2022-12-18T05:08:17.014Z,52.40
2022-12-18T05:09:17.111Z,51.80
2022-12-18T05:10:17.002Z,57.90
2022-12-18T05:11:16.979Z,59.20
2022-12-18T05:12:16.969Z,58.90
2022-12-18T05:13:16.953Z,60.50
2022-12-18T05:14:16.943Z,59.10
2022-12-18T05:15:16.951Z,59.70
2022-12-18T05:16:17.164Z,59.20
2022-12-18T05:17:16.961Z,57.50
2022-12-18T05:18:16.900Z,59.80
2022-12-18T05:19:16.884Z,62.70
2022-12-18T05:20:16.886Z,62.30
2022-12-18T05:21:16.858Z,58.70
2022-12-18T05:22:16.864Z,56.80
2022-12-18T05:23:16.933Z,57.60
2022-12-18T05:24:16.832Z,58.70
2022-12-18T05:25:16.946Z,60.50
2022-12-18T05:26:16.815Z,57.20
2022-12-18T05:27:16.795Z,60.80
2022-12-18T05:28:16.781Z,58.10
2022-12-18T05:29:16.771Z,56.10
2022-12-18T05:30:16.864Z,55.10
2022-12-18T05:31:16.850Z,48.30
2022-12-18T05:32:16.735Z,49.30
2022-12-18T05:33:16.755Z,49.90
2022-12-18T05:34:16.712Z,50.30
2022-12-18T05:35:16.715Z,53.90
2022-12-18T05:36:16.695Z,52.00
2022-12-18T05:37:16.677Z,51.40
2022-12-18T05:38:16.670Z,46.10
2022-12-18T05:39:16.655Z,51.40
2022-12-18T05:40:16.660Z,46.10
2022-12-18T05:41:16.762Z,49.90
2022-12-18T05:42:16.625Z,50.30
2022-12-18T05:43:21.130Z,50.80
2022-12-18T05:44:16.618Z,49.20
2022-12-18T05:45:16.607Z,47.80
2022-12-18T05:46:16.614Z,53.80
2022-12-18T05:47:16.572Z,46.10
2022-12-18T05:48:16.557Z,46.80
2022-12-18T05:49:16.539Z,48.10
2022-12-18T05:50:16.557Z,49.30
2022-12-18T05:51:16.517Z,44.80
2022-12-18T05:52:16.508Z,48.60
2022-12-18T05:53:16.495Z,50.70
2022-12-18T05:54:16.489Z,47.50
2022-12-18T05:55:16.482Z,48.90
2022-12-18T05:56:16.483Z,45.20
2022-12-18T05:57:16.567Z,52.10
2022-12-18T05:58:16.447Z,50.00
2022-12-18T05:59:16.426Z,48.40
2022-12-18T06:00:16.419Z,49.60
2022-12-18T06:01:16.521Z,51.90
2022-12-18T06:02:16.467Z,48.00
2022-12-18T06:03:16.612Z,51.90
2022-12-18T06:04:16.520Z,53.10
2022-12-18T06:05:16.354Z,50.80
2022-12-18T06:06:16.361Z,53.70
2022-12-18T06:07:16.337Z,54.90
2022-12-18T06:08:16.321Z,55.90
2022-12-18T06:09:16.310Z,55.60
2022-12-18T06:10:16.315Z,54.50
2022-12-18T06:11:16.304Z,62.00
2022-12-18T06:12:16.292Z,62.10
2022-12-18T06:13:16.380Z,59.20
2022-12-18T06:14:16.267Z,56.50
2022-12-18T06:15:16.249Z,56.40
2022-12-18T06:16:16.304Z,59.00
2022-12-18T06:17:16.223Z,56.90
2022-12-18T06:18:16.211Z,58.70
2022-12-18T06:19:16.201Z,60.50
2022-12-18T06:20:16.194Z,71.10
2022-12-18T06:21:16.192Z,66.10
2022-12-18T06:22:16.170Z,55.70
2022-12-18T06:23:16.152Z,55.90
2022-12-18T06:24:16.142Z,56.10
2022-12-18T06:25:16.131Z,54.40
2022-12-18T06:26:16.141Z,54.20
2022-12-18T06:27:16.103Z,56.90
2022-12-18T06:28:16.097Z,57.30
2022-12-18T06:29:16.197Z,54.60
2022-12-18T06:30:16.076Z,52.90
2022-12-18T06:31:16.123Z,50.80
2022-12-18T06:32:16.054Z,53.10
2022-12-18T06:33:16.039Z,51.20
2022-12-18T06:34:16.037Z,49.30
2022-12-18T06:35:16.020Z,50.40
2022-12-18T06:36:16.022Z,49.50
2022-12-18T06:37:15.993Z,51.00
2022-12-18T06:38:15.991Z,60.30
2022-12-18T06:39:15.971Z,62.30
2022-12-18T06:40:15.960Z,62.70
2022-12-18T06:41:15.959Z,60.50
2022-12-18T06:42:15.937Z,58.20
2022-12-18T06:43:15.923Z,58.70
2022-12-18T06:44:15.912Z,61.40
2022-12-18T06:45:16.031Z,58.90
2022-12-18T06:46:15.988Z,55.00
2022-12-18T06:47:15.874Z,52.50
2022-12-18T06:48:15.869Z,52.90
2022-12-18T06:49:15.858Z,51.30
2022-12-18T06:50:15.847Z,56.30
2022-12-18T06:51:15.849Z,51.90
2022-12-18T06:52:15.821Z,48.20
2022-12-18T06:53:15.811Z,49.00
2022-12-18T06:54:15.806Z,48.10
2022-12-18T06:55:15.788Z,49.20
2022-12-18T06:56:15.793Z,46.30
2022-12-18T06:57:15.789Z,47.00
2022-12-18T06:58:15.758Z,46.50
2022-12-18T06:59:15.747Z,41.10
2022-12-18T07:00:15.735Z,46.00
2022-12-18T07:01:16.004Z,44.30
2022-12-18T07:02:15.874Z,45.20
2022-12-18T07:03:15.783Z,47.40
2022-12-18T07:04:15.683Z,46.70
2022-12-18T07:05:15.678Z,45.60
2022-12-18T07:06:15.674Z,46.80
2022-12-18T07:07:15.665Z,43.00
2022-12-18T07:08:15.654Z,45.10
2022-12-18T07:09:15.626Z,46.60
2022-12-18T07:10:15.618Z,45.70
2022-12-18T07:11:15.609Z,42.50
2022-12-18T07:12:15.610Z,44.90
2022-12-18T07:13:15.578Z,43.50
2022-12-18T07:14:15.571Z,45.20
2022-12-18T07:15:15.560Z,46.60
2022-12-18T07:16:21.074Z,47.90
2022-12-18T07:17:15.685Z,44.30
2022-12-18T07:18:15.527Z,44.50
2022-12-18T07:19:15.543Z,43.70
2022-12-18T07:20:15.506Z,43.30
2022-12-18T07:21:15.495Z,41.30
2022-12-18T07:22:15.497Z,43.40
2022-12-18T07:23:15.467Z,44.10
2022-12-18T07:24:15.466Z,44.80
2022-12-18T07:25:15.448Z,50.20
2022-12-18T07:26:15.449Z,51.30
2022-12-18T07:27:15.439Z,57.70
2022-12-18T07:28:17.535Z,50.00
2022-12-18T07:29:15.399Z,46.80
2022-12-18T07:30:15.392Z,50.50
2022-12-18T07:31:15.427Z,63.20
2022-12-18T07:32:15.388Z,63.00
2022-12-18T07:33:15.468Z,62.20
2022-12-18T07:34:15.352Z,49.20
2022-12-18T07:35:16.110Z,52.60
2022-12-18T07:36:15.322Z,53.10
2022-12-18T07:37:15.321Z,57.60
2022-12-18T07:38:15.299Z,60.20
2022-12-18T07:39:15.290Z,52.20
2022-12-18T07:40:15.279Z,53.70
2022-12-18T07:41:15.267Z,60.50
2022-12-18T07:42:15.264Z,61.50
2022-12-18T07:43:15.238Z,61.10
2022-12-18T07:44:15.233Z,50.30
2022-12-18T07:45:15.217Z,55.60
2022-12-18T07:46:15.351Z,56.10
2022-12-18T07:47:15.208Z,58.60
2022-12-18T07:48:15.187Z,61.80
2022-12-18T07:49:15.284Z,59.60
2022-12-18T07:50:15.168Z,59.40
2022-12-18T07:51:15.158Z,54.90
2022-12-18T07:52:15.153Z,58.80
2022-12-18T07:53:15.124Z,57.70
2022-12-18T07:54:15.113Z,54.40
2022-12-18T07:55:15.100Z,52.60
2022-12-18T07:56:31.538Z,53.50
2022-12-18T07:57:34.040Z,53.40
2022-12-18T07:58:15.073Z,51.50
2022-12-18T07:59:15.056Z,62.30
2022-12-18T08:00:15.044Z,60.30
2022-12-18T08:01:15.164Z,59.30
2022-12-18T08:02:15.214Z,55.10
2022-12-18T08:03:15.091Z,53.00
2022-12-18T08:04:15.002Z,53.50
2022-12-18T08:05:15.103Z,53.40
2022-12-18T08:06:14.977Z,51.30
2022-12-18T08:07:14.967Z,55.00
2022-12-18T08:08:14.973Z,69.90
2022-12-18T08:09:14.946Z,93.50
2022-12-18T08:10:14.926Z,122.10
2022-12-18T08:11:14.919Z,96.50
2022-12-18T08:12:14.904Z,64.20
2022-12-18T08:13:14.913Z,49.90
2022-12-18T08:14:14.883Z,52.80
2022-12-18T08:15:14.876Z,59.20
2022-12-18T08:16:14.931Z,54.70
2022-12-18T08:17:14.857Z,55.90
2022-12-18T08:18:14.863Z,57.70
2022-12-18T08:19:14.840Z,47.20
2022-12-18T08:20:14.815Z,46.40
2022-12-18T08:21:14.926Z,48.80
2022-12-18T08:22:14.795Z,53.50
2022-12-18T08:23:14.798Z,49.70
2022-12-18T08:24:14.768Z,48.30
2022-12-18T08:25:14.757Z,46.20
2022-12-18T08:26:14.742Z,47.10
2022-12-18T08:27:29.513Z,44.00
2022-12-18T08:28:15.737Z,42.50
2022-12-18T08:29:19.962Z,39.50
2022-12-18T08:30:15.701Z,39.40
2022-12-18T08:31:14.741Z,37.70
2022-12-18T08:32:14.739Z,37.00
2022-12-18T08:33:14.677Z,35.20
2022-12-18T08:34:14.702Z,39.60
2022-12-18T08:35:17.562Z,37.90
2022-12-18T08:36:14.630Z,36.40
2022-12-18T08:37:20.515Z,47.80
2022-12-18T08:38:15.725Z,37.60
2022-12-18T08:39:14.585Z,34.90
2022-12-18T08:40:14.571Z,37.10
2022-12-18T08:41:14.558Z,33.30
2022-12-18T08:42:14.544Z,35.80
2022-12-18T08:43:14.553Z,33.80
2022-12-18T08:44:14.560Z,32.90
2022-12-18T08:45:14.513Z,33.40
2022-12-18T08:46:14.544Z,34.10
2022-12-18T08:47:14.487Z,57.10
2022-12-18T08:48:19.198Z,46.60
2022-12-18T08:49:14.467Z,34.40
2022-12-18T08:50:14.445Z,34.40
2022-12-18T08:51:14.433Z,32.00
2022-12-18T08:52:14.422Z,35.30
2022-12-18T08:53:14.435Z,34.30
2022-12-18T08:54:14.516Z,32.00
2022-12-18T08:55:14.393Z,34.00
2022-12-18T08:56:14.365Z,37.30
2022-12-18T08:57:14.352Z,44.30
2022-12-18T08:58:14.364Z,44.50
2022-12-18T08:59:19.412Z,40.30
2022-12-18T09:00:14.319Z,44.50
2022-12-18T09:01:14.363Z,46.60
2022-12-18T09:02:14.502Z,49.50
2022-12-18T09:03:14.304Z,48.70
2022-12-18T09:04:14.270Z,43.40
2022-12-18T09:05:14.259Z,46.00
2022-12-18T09:06:14.240Z,45.50
2022-12-18T09:07:14.227Z,41.80
2022-12-18T09:08:14.241Z,38.50
2022-12-18T09:09:14.198Z,33.90
2022-12-18T09:10:14.305Z,33.50
2022-12-18T09:11:14.179Z,35.50
2022-12-18T09:12:14.162Z,47.90
2022-12-18T09:13:14.147Z,46.80
2022-12-18T09:14:14.152Z,45.00
2022-12-18T09:15:14.123Z,44.40
2022-12-18T09:16:14.113Z,39.20
2022-12-18T09:17:14.123Z,40.40
2022-12-18T09:18:14.080Z,35.50
2022-12-18T09:19:14.094Z,34.00
2022-12-18T09:20:14.057Z,30.80
2022-12-18T09:21:14.043Z,32.30
2022-12-18T09:22:14.027Z,31.40
2022-12-18T09:23:14.021Z,31.80
2022-12-18T09:24:14.019Z,44.80
2022-12-18T09:25:13.991Z,38.20
2022-12-18T09:26:19.771Z,32.70
2022-12-18T09:27:15.086Z,29.80
2022-12-18T09:28:13.954Z,31.10
2022-12-18T09:29:14.009Z,33.20
2022-12-18T09:30:13.924Z,32.30
2022-12-18T09:31:13.961Z,31.60
2022-12-18T09:32:18.965Z,32.60
2022-12-18T09:33:13.895Z,32.50
2022-12-18T09:34:13.898Z,33.90
2022-12-18T09:35:13.893Z,26.60
2022-12-18T09:36:13.850Z,28.30
2022-12-18T09:37:13.845Z,28.50
2022-12-18T09:38:13.831Z,28.80
2022-12-18T09:39:13.825Z,28.50
2022-12-18T09:40:13.792Z,30.30
2022-12-18T09:41:13.783Z,31.20
2022-12-18T09:42:13.766Z,29.90
2022-12-18T09:43:13.870Z,32.20
2022-12-18T09:44:13.817Z,30.00
2022-12-18T09:45:13.753Z,29.00
2022-12-18T09:46:13.778Z,26.20
2022-12-18T09:47:13.710Z,31.30
2022-12-18T09:48:13.690Z,33.00
2022-12-18T09:49:13.695Z,30.90
2022-12-18T09:50:17.273Z,33.30
2022-12-18T09:51:13.649Z,32.70
2022-12-18T09:52:13.645Z,31.80
2022-12-18T09:53:13.627Z,33.50
2022-12-18T09:54:13.649Z,32.80
2022-12-18T09:55:13.614Z,32.60
2022-12-18T09:56:13.587Z,34.10
2022-12-18T09:57:13.577Z,34.00
2022-12-18T09:58:13.560Z,35.40
2022-12-18T09:59:13.688Z,36.10
2022-12-18T10:00:13.537Z,38.10
2022-12-18T10:01:13.557Z,36.40
2022-12-18T10:02:13.637Z,34.60
2022-12-18T10:03:13.678Z,34.00
2022-12-18T10:04:13.560Z,38.30
2022-12-18T10:05:13.468Z,37.50
2022-12-18T10:06:13.454Z,36.30
2022-12-18T10:07:13.446Z,35.90
2022-12-18T10:08:13.424Z,34.80
2022-12-18T10:09:13.435Z,35.70
2022-12-18T10:10:13.402Z,36.60
2022-12-18T10:11:13.394Z,38.30
2022-12-18T10:12:13.373Z,35.10
2022-12-18T10:13:13.366Z,35.70
2022-12-18T10:14:13.362Z,36.50
2022-12-18T10:15:13.454Z,36.80
2022-12-18T10:16:13.428Z,38.00
2022-12-18T10:17:13.314Z,38.80
2022-12-18T10:18:17.259Z,36.70
2022-12-18T10:19:14.304Z,38.60
2022-12-18T10:20:13.271Z,38.80
2022-12-18T10:21:13.262Z,40.60
2022-12-18T10:22:13.245Z,39.60
2022-12-18T10:23:13.238Z,40.40
2022-12-18T10:24:13.215Z,36.60
2022-12-18T10:25:13.220Z,37.40
2022-12-18T10:26:13.191Z,40.50
2022-12-18T10:27:13.181Z,39.10
2022-12-18T10:28:13.162Z,36.80
2022-12-18T10:29:13.149Z,36.20
2022-12-18T10:30:13.156Z,34.20
2022-12-18T10:31:13.332Z,35.80
2022-12-18T10:32:13.117Z,33.00
2022-12-18T10:33:13.101Z,32.00
2022-12-18T10:34:13.084Z,33.00
2022-12-18T10:35:13.092Z,31.30
2022-12-18T10:36:13.061Z,29.30
2022-12-18T10:37:13.049Z,31.40
2022-12-18T10:38:13.033Z,33.00
2022-12-18T10:39:13.025Z,33.20
2022-12-18T10:40:18.201Z,33.50
2022-12-18T10:41:13.001Z,32.50
2022-12-18T10:42:12.982Z,32.10
2022-12-18T10:43:12.966Z,32.20
2022-12-18T10:44:12.953Z,28.80
2022-12-18T10:45:12.964Z,31.40
2022-12-18T10:46:13.006Z,30.50
2022-12-18T10:47:13.050Z,29.50
2022-12-18T10:48:12.910Z,30.50
2022-12-18T10:49:12.892Z,30.40
2022-12-18T10:50:12.897Z,32.70
2022-12-18T10:51:13.691Z,39.00
2022-12-18T10:52:12.853Z,34.50
2022-12-18T10:53:12.839Z,31.60
2022-12-18T10:54:12.825Z,33.20
2022-12-18T10:55:12.828Z,35.10
2022-12-18T10:56:12.801Z,33.30
2022-12-18T10:57:12.794Z,33.40
2022-12-18T10:58:12.776Z,32.60
2022-12-18T10:59:12.762Z,33.90
2022-12-18T11:00:12.759Z,33.30
2022-12-18T11:01:12.808Z,35.40
2022-12-18T11:02:12.933Z,33.30
2022-12-18T11:03:13.107Z,36.10
2022-12-18T11:04:12.695Z,35.90
2022-12-18T11:05:12.705Z,38.00
2022-12-18T11:06:12.676Z,42.00
2022-12-18T11:07:12.662Z,37.10
2022-12-18T11:08:12.647Z,37.50
2022-12-18T11:09:14.501Z,38.50
2022-12-18T11:10:12.631Z,37.30
2022-12-18T11:11:12.605Z,34.50
2022-12-18T11:12:12.591Z,38.20
2022-12-18T11:13:12.579Z,36.60
2022-12-18T11:14:12.560Z,36.80
2022-12-18T11:15:12.569Z,36.20
2022-12-18T11:16:12.585Z,37.50
2022-12-18T11:17:27.938Z,37.10
2022-12-18T11:18:13.515Z,34.20
2022-12-18T11:19:12.614Z,34.20
2022-12-18T11:20:12.499Z,34.90
2022-12-18T11:21:12.475Z,35.20
2022-12-18T11:22:12.461Z,38.00
2022-12-18T11:23:12.456Z,36.30
2022-12-18T11:24:12.430Z,35.30
2022-12-18T11:26:12.411Z,38.60
2022-12-18T11:27:12.395Z,35.90
2022-12-18T11:28:12.387Z,37.60
2022-12-18T11:29:12.385Z,36.20
2022-12-18T11:30:12.370Z,35.90
2022-12-18T11:31:12.382Z,39.20
2022-12-18T11:32:12.335Z,36.50
2022-12-18T11:33:12.317Z,35.60
2022-12-18T11:34:28.575Z,38.00
2022-12-18T11:35:13.432Z,40.10
2022-12-18T11:36:12.281Z,34.90
2022-12-18T11:37:12.267Z,37.20
2022-12-18T11:38:12.255Z,42.50
2022-12-18T11:39:12.243Z,35.40
2022-12-18T11:40:12.235Z,38.00
2022-12-18T11:41:12.232Z,34.30
2022-12-18T11:42:12.207Z,35.70
2022-12-18T11:43:12.193Z,35.50
2022-12-18T11:44:12.182Z,35.60
2022-12-18T11:45:12.167Z,35.70
2022-12-18T11:46:17.623Z,35.70
2022-12-18T11:47:13.141Z,36.40
2022-12-18T11:48:12.123Z,36.00
2022-12-18T11:49:12.114Z,38.50
2022-12-18T11:50:12.110Z,35.30
2022-12-18T11:51:12.227Z,37.90
2022-12-18T11:52:12.079Z,35.10
2022-12-18T11:53:12.068Z,36.00
2022-12-18T11:54:12.052Z,38.10
2022-12-18T11:55:12.039Z,37.90
2022-12-18T11:56:12.035Z,36.30
2022-12-18T11:57:12.013Z,35.70
2022-12-18T11:58:12.000Z,30.90
2022-12-18T11:59:11.988Z,36.80
2022-12-18T12:00:11.973Z,38.20
2022-12-18T12:01:11.999Z,36.30
2022-12-18T12:02:12.056Z,41.70
2022-12-18T12:03:12.000Z,41.20
2022-12-18T12:04:11.972Z,38.00
2022-12-18T12:05:11.925Z,35.10
2022-12-18T12:06:11.916Z,36.80
2022-12-18T12:07:11.997Z,36.70
2022-12-18T12:08:11.885Z,39.20
2022-12-18T12:09:11.870Z,38.60
2022-12-18T12:10:11.837Z,39.70
2022-12-18T12:11:11.879Z,40.50
2022-12-18T12:12:11.816Z,29.20
2022-12-18T12:13:11.802Z,39.40
2022-12-18T12:14:11.800Z,38.20
2022-12-18T12:15:11.783Z,36.40
2022-12-18T12:16:11.884Z,37.30
2022-12-18T12:17:11.752Z,38.80
2022-12-18T12:18:11.875Z,39.80
2022-12-18T12:19:11.728Z,37.20
2022-12-18T12:20:11.757Z,38.00
2022-12-18T12:21:11.718Z,37.90
2022-12-18T12:22:11.694Z,42.50
2022-12-18T12:23:11.794Z,38.50
2022-12-18T12:24:11.665Z,42.90
2022-12-18T12:25:11.649Z,42.00
2022-12-18T12:26:11.651Z,37.40
2022-12-18T12:27:11.624Z,40.00
2022-12-18T12:28:11.624Z,40.50
2022-12-18T12:29:12.645Z,35.10
2022-12-18T12:30:11.590Z,39.60
2022-12-18T12:31:11.640Z,38.10
2022-12-18T12:32:11.568Z,38.00
2022-12-18T12:33:11.553Z,39.80
2022-12-18T12:34:11.538Z,38.70
2022-12-18T12:35:11.596Z,41.30
2022-12-18T12:36:11.529Z,42.60
2022-12-18T12:37:11.496Z,41.20
2022-12-18T12:38:11.645Z,46.10
2022-12-18T12:39:11.595Z,40.90
2022-12-18T12:40:48.330Z,39.70
2022-12-18T12:41:11.469Z,42.20
2022-12-18T12:42:11.437Z,40.40
2022-12-18T12:43:11.423Z,43.10
2022-12-18T12:44:11.410Z,38.90
2022-12-18T12:45:11.401Z,45.00
2022-12-18T12:46:11.442Z,44.90
2022-12-18T12:47:11.376Z,38.70
2022-12-18T12:48:11.367Z,40.80
2022-12-18T12:49:11.348Z,41.80
2022-12-18T12:50:11.334Z,44.60
2022-12-18T12:51:11.339Z,44.20
2022-12-18T12:52:11.315Z,43.30
2022-12-18T12:53:11.300Z,36.60